createdAt,value
2024-02-23T00:00:37.209Z,98665.69
2024-02-23T00:03:03.957Z,98662.06
2024-02-23T00:05:30.623Z,98671.88
2024-02-23T00:07:57.238Z,98683.16
2024-02-23T00:10:23.908Z,98685.94
2024-02-23T00:12:50.523Z,98684.34
2024-02-23T00:15:16.991Z,98685.53
2024-02-23T00:17:43.632Z,98686.72
2024-02-23T00:20:14.932Z,98693.53
2024-02-23T00:22:41.536Z,98688.72
2024-02-23T00:25:08.831Z,98695.34
2024-02-23T00:27:35.472Z,98693.31
2024-02-23T00:30:02.058Z,98701.34
2024-02-23T00:32:28.629Z,98700.34
2024-02-23T00:34:55.207Z,98710.38
2024-02-23T00:37:21.799Z,98701.34
2024-02-23T00:39:48.301Z,98712.56
2024-02-23T00:42:14.893Z,98714.16
2024-02-23T00:44:41.363Z,98716.00
2024-02-23T00:47:07.929Z,98718.38
2024-02-23T00:49:34.465Z,98717.41
2024-02-23T00:52:01.026Z,98717.78
2024-02-23T00:54:27.624Z,98732.59
2024-02-23T00:56:57.345Z,98731.63
2024-02-23T00:59:24.229Z,98735.03
2024-02-23T01:01:50.923Z,98743.44
2024-02-23T01:04:17.429Z,98738.03
2024-02-23T01:06:44.079Z,98737.22
2024-02-23T01:09:10.833Z,98754.91
2024-02-23T01:11:37.408Z,98759.31
2024-02-23T01:14:04.085Z,98772.78
2024-02-23T01:16:30.716Z,98765.34
2024-02-23T01:18:57.723Z,98766.97
2024-02-23T01:21:24.226Z,98780.81
2024-02-23T01:23:50.745Z,98782.22
2024-02-23T01:26:17.328Z,98780.25
2024-02-23T01:28:44.242Z,98786.06
2024-02-23T01:31:14.627Z,98775.63
2024-02-23T01:33:41.310Z,98779.81
2024-02-23T01:36:08.903Z,98795.88
2024-02-23T01:38:35.737Z,98813.94
2024-02-23T01:41:03.112Z,98825.19
2024-02-23T01:43:29.798Z,98806.13
2024-02-23T01:45:56.369Z,98798.09
2024-02-23T01:48:23.162Z,98785.66
2024-02-23T01:50:49.904Z,98807.50
2024-02-23T01:53:17.883Z,98823.16
2024-02-23T01:55:47.276Z,98843.03
2024-02-23T01:58:14.171Z,98829.56
2024-02-23T02:00:40.662Z,98828.38
2024-02-23T02:03:10.736Z,98832.59
2024-02-23T02:05:39.628Z,98840.03
2024-02-23T02:08:06.746Z,98830.59
2024-02-23T02:10:33.420Z,98835.59
2024-02-23T02:13:06.614Z,98840.81
2024-02-23T02:15:33.299Z,98840.03
2024-02-23T02:17:59.895Z,98844.44
2024-02-23T02:20:29.516Z,98843.25
2024-02-23T02:22:56.224Z,98839.03
2024-02-23T02:25:22.776Z,98845.22
2024-02-23T02:27:49.347Z,98844.66
2024-02-23T02:30:15.931Z,98844.25
2024-02-23T02:32:42.682Z,98842.63
2024-02-23T02:35:12.317Z,98840.44
2024-02-23T02:37:39.182Z,98837.81
2024-02-23T02:40:06.561Z,98836.63
2024-02-23T02:42:34.347Z,98850.44
2024-02-23T02:45:00.823Z,98842.41
2024-02-23T02:47:28.017Z,98853.25
2024-02-23T02:49:54.730Z,98859.84
2024-02-23T02:52:24.082Z,98851.44
2024-02-23T02:54:51.052Z,98858.25
2024-02-23T02:57:17.592Z,98862.88
2024-02-23T02:59:45.598Z,98864.47
2024-02-23T03:02:12.268Z,98854.84
2024-02-23T03:04:38.801Z,98861.22
2024-02-23T03:07:05.946Z,98861.66
2024-02-23T03:09:32.475Z,98862.63
2024-02-23T03:11:59.011Z,98870.66
2024-02-23T03:14:26.823Z,98867.44
2024-02-23T03:16:53.551Z,98884.72
2024-02-23T03:19:23.648Z,98888.13
2024-02-23T03:21:50.898Z,98886.31
2024-02-23T03:24:17.505Z,98884.50
2024-02-23T03:26:44.251Z,98884.28
2024-02-23T03:29:11.466Z,98883.06
2024-02-23T03:31:38.460Z,98890.06
2024-02-23T03:34:04.969Z,98900.31
2024-02-23T03:36:31.539Z,98888.69
2024-02-23T03:38:58.141Z,98890.47
2024-02-23T03:41:24.827Z,98897.47
2024-02-23T03:43:51.455Z,98898.88
2024-02-23T03:46:18.772Z,98901.06
2024-02-23T03:48:45.830Z,98911.06
2024-02-23T03:51:13.465Z,98905.44
2024-02-23T03:53:40.062Z,98923.50
2024-02-23T03:56:06.914Z,98912.28
2024-02-23T03:58:33.528Z,98910.66
2024-02-23T04:01:00.046Z,98909.25
2024-02-23T04:03:26.538Z,98911.88
2024-02-23T04:05:53.073Z,98918.06
2024-02-23T04:08:19.584Z,98904.22
2024-02-23T04:10:46.413Z,98921.06
2024-02-23T04:13:15.014Z,98924.06
2024-02-23T04:15:41.618Z,98914.81
2024-02-23T04:18:08.108Z,98923.81
2024-02-23T04:20:35.074Z,98927.00
2024-02-23T04:23:01.824Z,98926.38
2024-02-23T04:25:28.656Z,98933.22
2024-02-23T04:27:55.248Z,98933.38
2024-02-23T04:30:21.854Z,98937.19
2024-02-23T04:32:48.766Z,98937.19
2024-02-23T04:35:15.624Z,98937.19
2024-02-23T04:37:46.254Z,98934.97
2024-02-23T04:40:13.089Z,98937.75
2024-02-23T04:42:40.018Z,98943.16
2024-02-23T04:45:07.159Z,98947.16
2024-02-23T04:47:33.821Z,98951.72
2024-02-23T04:50:00.598Z,98954.34
2024-02-23T04:52:27.187Z,98955.97
2024-02-23T04:54:53.687Z,98960.59
2024-02-23T04:57:20.134Z,98956.41
2024-02-23T04:59:46.626Z,98963.03
2024-02-23T05:02:14.541Z,98962.66
2024-02-23T05:04:41.282Z,98975.13
2024-02-23T05:07:07.825Z,98964.13
2024-02-23T05:09:36.148Z,98957.94
2024-02-23T05:12:02.798Z,98965.53
2024-02-23T05:14:29.458Z,98958.53
2024-02-23T05:16:56.081Z,98954.94
2024-02-23T05:19:22.669Z,98951.50
2024-02-23T05:21:49.219Z,98954.53
2024-02-23T05:24:18.663Z,98954.34
2024-02-23T05:26:45.533Z,98954.16
2024-02-23T05:29:14.059Z,98958.34
2024-02-23T05:31:49.421Z,98957.19
2024-02-23T05:34:16.502Z,98952.59
2024-02-23T05:36:44.269Z,98965.41
2024-02-23T05:39:10.914Z,98966.03
2024-02-23T05:41:38.060Z,98961.63
2024-02-23T05:44:08.024Z,98957.22
2024-02-23T05:46:36.059Z,98963.84
2024-02-23T05:49:03.660Z,98958.44
2024-02-23T05:51:30.460Z,98960.03
2024-02-23T05:53:57.645Z,98967.84
2024-02-23T05:56:27.628Z,98967.25
2024-02-23T05:58:54.360Z,98956.03
2024-02-23T06:01:21.080Z,98955.81
2024-02-23T06:03:47.894Z,98959.44
2024-02-23T06:06:15.368Z,98965.44
2024-02-23T06:08:42.169Z,98962.03
2024-02-23T06:11:11.441Z,98963.25
2024-02-23T06:13:38.239Z,98960.44
2024-02-23T06:16:06.490Z,98965.50
2024-02-23T06:18:33.037Z,98966.09
2024-02-23T06:20:59.631Z,98967.50
2024-02-23T06:23:26.185Z,98965.69
2024-02-23T06:25:53.112Z,98962.91
2024-02-23T06:28:19.659Z,98968.94
2024-02-23T06:30:46.173Z,98968.72
2024-02-23T06:33:12.842Z,98964.94
2024-02-23T06:35:39.503Z,98974.16
2024-02-23T06:38:06.975Z,98975.78
2024-02-23T06:40:45.356Z,98974.38
2024-02-23T06:43:15.320Z,98980.19
2024-02-23T06:45:41.837Z,98983.41
2024-02-23T06:48:08.985Z,98986.81
2024-02-23T06:50:36.765Z,98986.44
2024-02-23T06:53:03.439Z,98975.00
2024-02-23T06:55:30.071Z,98977.22
2024-02-23T06:57:56.913Z,98987.44
2024-02-23T07:00:23.391Z,98978.66
2024-02-23T07:02:49.898Z,98979.25
2024-02-23T07:05:16.544Z,98967.63
2024-02-23T07:07:43.598Z,98970.84
2024-02-23T07:10:11.652Z,98975.88
2024-02-23T07:12:38.174Z,98975.88
2024-02-23T07:15:05.055Z,98978.47
2024-02-23T07:17:31.668Z,98978.25
2024-02-23T07:20:06.982Z,98980.69
2024-02-23T07:22:34.008Z,98979.47
2024-02-23T07:25:02.619Z,98998.34
2024-02-23T07:27:30.233Z,98984.72
2024-02-23T07:29:56.794Z,98976.50
2024-02-23T07:32:23.373Z,98982.75
2024-02-23T07:34:50.865Z,98985.56
2024-02-23T07:37:17.627Z,98980.75
2024-02-23T07:39:44.240Z,98972.91
2024-02-23T07:42:12.029Z,98976.16
2024-02-23T07:44:38.827Z,98966.13
2024-02-23T07:47:05.854Z,98969.94
2024-02-23T07:49:32.571Z,98964.09
2024-02-23T07:51:59.293Z,98954.47
2024-02-23T07:54:26.052Z,98958.28
2024-02-23T07:56:52.607Z,98944.84
2024-02-23T07:59:21.713Z,98949.44
2024-02-23T08:01:48.388Z,98947.84
2024-02-23T08:04:14.981Z,98947.84
2024-02-23T08:06:42.079Z,98941.84
2024-02-23T08:09:09.180Z,98943.44
2024-02-23T08:11:37.076Z,98947.47
2024-02-23T08:14:04.294Z,98934.19
2024-02-23T08:16:30.824Z,98945.44
2024-02-23T08:18:57.314Z,98929.97
2024-02-23T08:21:23.984Z,98935.38
2024-02-23T08:23:50.534Z,98935.97
2024-02-23T08:26:17.209Z,98930.34
2024-02-23T08:28:43.785Z,98930.34
2024-02-23T08:31:10.291Z,98937.38
2024-02-23T08:33:37.163Z,98923.53
2024-02-23T08:36:06.956Z,98935.00
2024-02-23T08:38:34.033Z,98930.16
2024-02-23T08:41:00.663Z,98930.16
2024-02-23T08:43:27.370Z,98922.53
2024-02-23T08:45:53.943Z,98920.53
2024-02-23T08:48:20.528Z,98919.91
2024-02-23T08:50:47.306Z,98918.13
2024-02-23T08:53:13.912Z,98915.50
2024-02-23T08:55:40.443Z,98915.50
2024-02-23T08:58:07.393Z,98919.09
2024-02-23T09:00:34.145Z,98919.31
2024-02-23T09:03:01.035Z,98917.50
2024-02-23T09:05:27.779Z,98926.94
2024-02-23T09:07:54.702Z,98919.09
2024-02-23T09:10:21.536Z,98918.91
2024-02-23T09:12:48.305Z,98920.31
2024-02-23T09:15:14.925Z,98932.97
2024-02-23T09:17:42.957Z,98925.75
2024-02-23T09:20:10.259Z,98934.59
2024-02-23T09:22:38.177Z,98944.22
2024-02-23T09:25:06.565Z,98939.81
2024-02-23T09:27:33.336Z,98940.63
2024-02-23T09:30:00.075Z,98944.59
2024-02-23T09:32:26.684Z,98943.22
2024-02-23T09:34:53.243Z,98937.97
2024-02-23T09:37:19.848Z,98943.81
2024-02-23T09:39:46.329Z,98938.38
2024-02-23T09:42:13.080Z,98945.22
2024-02-23T09:44:40.841Z,98942.78
2024-02-23T09:47:12.396Z,98947.44
2024-02-23T09:49:41.757Z,98946.59
2024-02-23T09:52:10.564Z,98951.63
2024-02-23T09:54:41.017Z,98955.84
2024-02-23T09:57:11.473Z,98960.50
2024-02-23T09:59:39.165Z,98954.44
2024-02-23T10:02:13.371Z,98970.72
2024-02-23T10:04:40.665Z,98972.53
2024-02-23T10:07:07.665Z,98959.28
2024-02-23T10:09:34.292Z,98965.88
2024-02-23T10:12:05.120Z,98968.47
2024-02-23T10:14:31.896Z,98966.56
2024-02-23T10:16:58.598Z,98980.84
2024-02-23T10:19:29.955Z,98974.41
2024-02-23T10:21:57.380Z,98973.78
2024-02-23T10:24:25.226Z,98975.78
2024-02-23T10:26:52.717Z,98982.00
2024-02-23T10:29:21.173Z,98980.00
2024-02-23T10:31:52.380Z,98971.94
2024-02-23T10:34:20.954Z,98985.22
2024-02-23T10:36:48.800Z,98986.06
2024-02-23T10:39:22.522Z,98988.91
2024-02-23T10:41:58.102Z,99000.41
2024-02-23T10:44:25.621Z,98999.59
2024-02-23T10:46:53.820Z,99006.44
2024-02-23T10:49:23.092Z,99017.75
2024-02-23T10:51:53.051Z,99019.34
2024-02-23T10:54:23.786Z,99024.16
2024-02-23T10:56:52.456Z,99023.75
2024-02-23T10:59:20.110Z,99018.09
2024-02-23T11:01:52.133Z,99012.84
2024-02-23T11:04:19.108Z,99024.50
2024-02-23T11:06:52.755Z,99020.03
2024-02-23T11:09:22.781Z,99029.81
2024-02-23T11:12:00.242Z,99025.13
2024-02-23T11:14:35.802Z,99023.06
2024-02-23T11:17:03.103Z,99023.44
2024-02-23T11:19:38.224Z,99017.34
2024-02-23T11:22:07.683Z,99015.88
2024-02-23T11:24:34.513Z,99023.25
2024-02-23T11:27:09.091Z,99030.63
2024-02-23T11:29:36.910Z,99024.41
2024-02-23T11:32:05.412Z,99030.84
2024-02-23T11:34:32.362Z,99025.59
2024-02-23T11:37:00.386Z,99022.97
2024-02-23T11:39:28.365Z,99017.56
2024-02-23T11:41:55.198Z,99025.81
2024-02-23T11:44:21.832Z,99018.69
2024-02-23T11:46:48.393Z,99025.69
2024-02-23T11:49:16.972Z,99017.56
2024-02-23T11:51:43.987Z,99035.69
2024-02-23T11:54:10.589Z,99044.78
2024-02-23T11:56:37.241Z,99038.16
2024-02-23T11:59:04.843Z,99033.31
2024-02-23T12:01:31.879Z,99030.69
2024-02-23T12:03:58.438Z,99033.31
2024-02-23T12:06:28.755Z,99044.22
2024-02-23T12:08:55.530Z,99051.06
2024-02-23T12:11:22.374Z,99055.91
2024-02-23T12:13:49.028Z,99043.66
2024-02-23T12:16:15.700Z,99043.38
2024-02-23T12:18:42.230Z,99047.22
2024-02-23T12:21:10.476Z,99033.25
2024-02-23T12:23:44.428Z,99046.28
2024-02-23T12:26:14.476Z,99043.63
2024-02-23T12:28:42.169Z,99043.78
2024-02-23T12:31:08.815Z,99037.47
2024-02-23T12:33:37.094Z,99032.38
2024-02-23T12:36:04.540Z,99049.69
2024-02-23T12:38:31.743Z,99062.84
2024-02-23T12:40:58.929Z,99053.97
2024-02-23T12:43:25.795Z,99057.59
2024-02-23T12:45:53.998Z,99056.59
2024-02-23T12:48:21.562Z,99066.22
2024-02-23T12:50:49.076Z,99064.72
2024-02-23T12:53:37.092Z,99075.50
2024-02-23T12:56:05.574Z,99068.06
2024-02-23T12:58:38.656Z,99079.72
2024-02-23T13:01:07.317Z,99079.59
2024-02-23T13:03:35.536Z,99082.94
2024-02-23T13:06:03.738Z,99071.22
2024-02-23T13:08:31.243Z,99087.47
2024-02-23T13:10:58.724Z,99073.13
2024-02-23T13:13:25.838Z,99092.56
2024-02-23T13:15:54.105Z,99088.28
2024-02-23T13:18:21.155Z,99085.88
2024-02-23T13:20:47.968Z,99086.16
2024-02-23T13:23:17.047Z,99090.59
2024-02-23T13:25:45.744Z,99077.91
2024-02-23T13:28:12.275Z,99092.72
2024-02-23T13:30:39.824Z,99084.53
2024-02-23T13:33:07.634Z,99097.72
2024-02-23T13:35:34.962Z,99096.81
2024-02-23T13:38:04.353Z,99094.91
2024-02-23T13:40:32.609Z,99092.34
2024-02-23T13:42:59.341Z,99095.13
2024-02-23T13:45:26.387Z,99084.69
2024-02-23T13:48:04.434Z,99094.19
2024-02-23T13:50:31.812Z,99094.38
2024-02-23T13:52:59.250Z,99105.69
2024-02-23T13:55:25.954Z,99105.13
2024-02-23T13:57:53.711Z,99106.78
2024-02-23T14:00:21.490Z,99108.03
2024-02-23T14:02:49.069Z,99108.03
2024-02-23T14:05:16.929Z,99118.31
2024-02-23T14:07:43.930Z,99122.31
2024-02-23T14:10:10.869Z,99125.06
2024-02-23T14:12:37.519Z,99124.03
2024-02-23T14:15:06.086Z,99124.94
2024-02-23T14:17:32.811Z,99124.78
2024-02-23T14:19:59.791Z,99127.22
2024-02-23T14:22:29.485Z,99113.66
2024-02-23T14:24:56.146Z,99132.97
2024-02-23T14:27:22.634Z,99126.47
2024-02-23T14:29:49.229Z,99133.69
2024-02-23T14:32:19.448Z,99125.00
2024-02-23T14:34:46.991Z,99125.00
2024-02-23T14:37:13.838Z,99123.69
2024-02-23T14:39:40.545Z,99123.56
2024-02-23T14:42:09.682Z,99135.09
2024-02-23T14:44:37.234Z,99131.16
2024-02-23T14:47:06.426Z,99136.34
2024-02-23T14:49:34.144Z,99138.16
2024-02-23T14:52:01.105Z,99133.63
2024-02-23T14:54:27.714Z,99149.41
2024-02-23T14:56:54.482Z,99149.03
2024-02-23T14:59:21.750Z,99146.47
2024-02-23T15:01:48.572Z,99148.16
2024-02-23T15:04:16.920Z,99149.63
2024-02-23T15:06:47.526Z,99149.69
2024-02-23T15:09:14.153Z,99153.09
2024-02-23T15:11:41.099Z,99152.88
2024-02-23T15:14:08.005Z,99155.06
2024-02-23T15:16:34.621Z,99155.06
2024-02-23T15:19:01.180Z,99153.91
2024-02-23T15:21:28.140Z,99151.78
2024-02-23T15:23:55.180Z,99170.38
2024-02-23T15:26:21.871Z,99168.16
2024-02-23T15:28:48.505Z,99168.03
2024-02-23T15:31:15.444Z,99170.28
2024-02-23T15:33:42.166Z,99170.09
2024-02-23T15:36:09.855Z,99170.34
2024-02-23T15:38:37.770Z,99157.25
2024-02-23T15:41:05.306Z,99171.22
2024-02-23T15:43:32.115Z,99169.22
2024-02-23T15:45:58.676Z,99175.50
2024-02-23T15:48:26.678Z,99165.66
2024-02-23T15:51:10.082Z,99176.34
2024-02-23T15:53:40.135Z,99174.34
2024-02-23T15:56:07.142Z,99168.53
2024-02-23T15:58:33.810Z,99173.78
2024-02-23T16:01:00.373Z,99178.00
2024-02-23T16:03:27.015Z,99169.75
2024-02-23T16:05:53.717Z,99179.66
2024-02-23T16:08:49.478Z,99178.69
2024-02-23T16:11:17.466Z,99186.81
2024-02-23T16:13:44.327Z,99183.84
2024-02-23T16:16:12.270Z,99202.00
2024-02-23T16:18:39.493Z,99200.81
2024-02-23T16:21:06.206Z,99199.63
2024-02-23T16:23:32.767Z,99196.84
2024-02-23T16:25:59.499Z,99200.91
2024-02-23T16:28:26.079Z,99204.97
2024-02-23T16:30:52.673Z,99202.34
2024-02-23T16:33:19.321Z,99216.44
2024-02-23T16:35:45.975Z,99203.75
2024-02-23T16:38:12.583Z,99208.59
2024-02-23T16:40:41.697Z,99208.00
2024-02-23T16:43:08.807Z,99206.81
2024-02-23T16:45:35.380Z,99205.41
2024-02-23T16:48:07.132Z,99203.19
2024-02-23T16:50:33.985Z,99209.69
2024-02-23T16:53:00.616Z,99217.34
2024-02-23T16:55:30.146Z,99213.31
2024-02-23T16:57:56.862Z,99224.41
2024-02-23T17:00:23.454Z,99230.25
2024-02-23T17:02:50.159Z,99219.63
2024-02-23T17:05:16.763Z,99230.69
2024-02-23T17:07:43.977Z,99218.81
2024-02-23T17:10:10.747Z,99234.72
2024-02-23T17:12:37.287Z,99229.47
2024-02-23T17:15:04.227Z,99237.34
2024-02-23T17:17:31.001Z,99240.16
2024-02-23T17:19:57.627Z,99243.19
2024-02-23T17:22:25.852Z,99239.97
2024-02-23T17:24:52.372Z,99244.78
2024-02-23T17:27:18.847Z,99237.97
2024-02-23T17:29:45.441Z,99234.53
2024-02-23T17:32:12.032Z,99240.41
2024-02-23T17:34:38.596Z,99245.84
2024-02-23T17:37:07.939Z,99242.59
2024-02-23T17:39:34.504Z,99239.59
2024-02-23T17:42:01.182Z,99230.94
2024-02-23T17:44:28.908Z,99235.97
2024-02-23T17:46:56.292Z,99236.59
2024-02-23T17:49:22.905Z,99246.25
2024-02-23T17:51:49.509Z,99247.84
2024-02-23T17:54:16.232Z,99249.66
2024-02-23T17:56:42.976Z,99258.91
2024-02-23T17:59:09.545Z,99269.78
2024-02-23T18:01:36.117Z,99274.81
2024-02-23T18:04:03.489Z,99322.13
2024-02-23T18:06:30.619Z,99342.00
2024-02-23T18:08:57.236Z,99337.72
2024-02-23T18:11:23.916Z,99336.06
2024-02-23T18:13:50.785Z,99330.00
2024-02-23T18:16:19.699Z,99339.78
2024-02-23T18:18:46.866Z,99341.16
2024-02-23T18:21:17.350Z,99338.75
2024-02-23T18:23:47.256Z,99335.50
2024-02-23T18:26:18.794Z,99334.53
2024-02-23T18:28:45.330Z,99332.31
2024-02-23T18:31:11.817Z,99339.50
2024-02-23T18:33:38.453Z,99328.88
2024-02-23T18:36:05.717Z,99334.09
2024-02-23T18:38:32.255Z,99332.47
2024-02-23T18:41:00.645Z,99331.63
2024-02-23T18:43:27.261Z,99331.00
2024-02-23T18:45:53.906Z,99330.94
2024-02-23T18:48:21.280Z,99330.53
2024-02-23T18:50:48.569Z,99332.34
2024-02-23T18:53:15.421Z,99327.13
2024-02-23T18:55:41.937Z,99319.88
2024-02-23T18:58:09.063Z,99323.44
2024-02-23T19:00:35.865Z,99320.78
2024-02-23T19:03:02.598Z,99325.56
2024-02-23T19:05:29.414Z,99323.16
2024-02-23T19:07:56.105Z,99321.53
2024-02-23T19:10:22.658Z,99325.78
2024-02-23T19:12:49.304Z,99329.63
2024-02-23T19:15:15.869Z,99318.53
2024-02-23T19:17:43.023Z,99320.97
2024-02-23T19:20:10.855Z,99321.56
2024-02-23T19:22:38.744Z,99323.59
2024-02-23T19:25:13.958Z,99336.28
2024-02-23T19:27:41.377Z,99342.94
2024-02-23T19:30:13.488Z,99336.34
2024-02-23T19:32:40.376Z,99340.00
2024-02-23T19:35:07.452Z,99336.56
2024-02-23T19:37:37.313Z,99332.72
2024-02-23T19:40:04.631Z,99337.13
2024-02-23T19:42:31.172Z,99315.03
2024-02-23T19:44:57.876Z,99301.91
2024-02-23T19:47:24.489Z,99311.75
2024-02-23T19:49:51.079Z,99306.53
2024-02-23T19:52:17.717Z,99308.75
2024-02-23T19:54:47.758Z,99315.19
2024-02-23T19:57:14.270Z,99317.78
2024-02-23T19:59:41.270Z,99314.75
2024-02-23T20:02:13.607Z,99316.94
2024-02-23T20:04:44.421Z,99314.91
2024-02-23T20:07:13.749Z,99329.34
2024-02-23T20:09:41.039Z,99327.47
2024-02-23T20:12:09.034Z,99329.81
2024-02-23T20:14:36.009Z,99320.78
2024-02-23T20:17:03.050Z,99318.72
2024-02-23T20:19:30.068Z,99323.91
2024-02-23T20:21:57.255Z,99329.31
2024-02-23T20:24:26.314Z,99349.19
2024-02-23T20:26:55.169Z,99381.94
2024-02-23T20:29:22.015Z,99381.34
2024-02-23T20:31:48.996Z,99383.22
2024-02-23T20:34:17.437Z,99368.00
2024-02-23T20:36:44.222Z,99355.38
2024-02-23T20:39:11.719Z,99371.47
2024-02-23T20:41:40.386Z,99368.66
2024-02-23T20:44:07.688Z,99368.09
2024-02-23T20:46:34.196Z,99375.38
2024-02-23T20:49:02.356Z,99374.97
2024-02-23T20:51:30.215Z,99376.03
2024-02-23T20:53:56.817Z,99380.88
2024-02-23T20:56:23.431Z,99382.09
2024-02-23T20:58:50.101Z,99370.50
2024-02-23T21:01:17.661Z,99383.34
2024-02-23T21:03:44.764Z,99373.91
2024-02-23T21:06:12.407Z,99379.13
2024-02-23T21:08:40.334Z,99379.13
2024-02-23T21:11:07.758Z,99377.31
2024-02-23T21:13:34.559Z,99372.91
2024-02-23T21:16:01.243Z,99368.84
2024-02-23T21:18:27.915Z,99370.88
2024-02-23T21:20:54.725Z,99368.25
2024-02-23T21:23:23.051Z,99368.25
2024-02-23T21:25:49.756Z,99365.81
2024-02-23T21:28:18.037Z,99373.66
2024-02-23T21:30:49.272Z,99370.22
2024-02-23T21:33:16.261Z,99374.44
2024-02-23T21:35:43.221Z,99378.88
2024-02-23T21:38:10.593Z,99385.72
2024-02-23T21:40:37.382Z,99384.53
2024-02-23T21:43:05.103Z,99385.94
2024-02-23T21:45:31.695Z,99397.03
2024-02-23T21:47:58.434Z,99403.84
2024-02-23T21:50:25.745Z,99403.66
2024-02-23T21:52:52.507Z,99401.03
2024-02-23T21:55:22.660Z,99393.22
2024-02-23T21:57:49.433Z,99401.41
2024-02-23T22:00:16.555Z,99400.81
2024-02-23T22:02:43.648Z,99396.97
2024-02-23T22:05:10.275Z,99402.38
2024-02-23T22:07:40.378Z,99390.53
2024-02-23T22:10:07.656Z,99394.31
2024-02-23T22:12:34.256Z,99397.28
2024-02-23T22:15:04.203Z,99385.41
2024-02-23T22:17:30.993Z,99396.44
2024-02-23T22:19:57.681Z,99392.00
2024-02-23T22:22:26.454Z,99384.38
2024-02-23T22:24:57.811Z,99390.97
2024-02-23T22:27:24.446Z,99387.13
2024-02-23T22:29:52.207Z,99389.91
2024-02-23T22:32:21.558Z,99397.16
2024-02-23T22:34:49.023Z,99396.06
2024-02-23T22:37:16.239Z,99388.63
2024-02-23T22:39:42.915Z,99392.59
2024-02-23T22:42:09.666Z,99387.72
2024-02-23T22:44:36.317Z,99388.44
2024-02-23T22:47:02.972Z,99384.34
2024-02-23T22:49:29.767Z,99393.09
2024-02-23T22:51:56.391Z,99391.78
2024-02-23T22:54:22.992Z,99386.50
2024-02-23T22:56:49.609Z,99392.44
2024-02-23T22:59:16.233Z,99388.72
2024-02-23T23:01:42.839Z,99390.59
2024-02-23T23:04:09.436Z,99383.13
2024-02-23T23:06:36.773Z,99384.78
2024-02-23T23:09:03.770Z,99389.00
2024-02-23T23:11:30.622Z,99380.16
2024-02-23T23:13:59.401Z,99390.44
2024-02-23T23:16:26.229Z,99387.63
2024-02-23T23:18:53.006Z,99386.03
2024-02-23T23:21:19.835Z,99395.81
2024-02-23T23:23:46.419Z,99393.56
2024-02-23T23:26:13.680Z,99396.91
2024-02-23T23:28:40.299Z,99409.66
2024-02-23T23:31:06.857Z,99401.03
2024-02-23T23:33:33.712Z,99402.03
2024-02-23T23:36:01.003Z,99402.41
2024-02-23T23:38:27.714Z,99405.53
2024-02-23T23:40:54.503Z,99407.34
2024-02-23T23:43:21.035Z,99413.72
2024-02-23T23:45:47.727Z,99414.72
2024-02-23T23:48:17.435Z,99413.91
2024-02-23T23:50:44.382Z,99401.84
2024-02-23T23:53:11.300Z,99415.06
2024-02-23T23:55:38.352Z,99412.00
2024-02-23T23:58:05.288Z,99406.81
